HE38 weather

Wadi Abu Rish Airport
Red Sea Governorate, Egypt

Public forecast

Using degrees Celsius for public forecast. Weather courtesy of forecast.io.

METAR (pilot weather report)

Closest report is Cairo International Airport, 70.5 nm (130.6 km) NNW. Retrieved 2019/03/26 00:00 UTC (3 minutes ago):

HECA 260000Z 27006KT 9999 SCT025 15/08 Q1011 NOSIG

TAF (pilot weather forecast)

Closest forecast is Cairo International Airport, 70.5 nm (130.6 km) NNW. Retrieved 2019/03/25 18:25 UTC (6 hours ago):

TAF HECA 251700Z 2518/2624 34009KT 9999 SCT025 TEMPO 2600/2606 4000HZ TEMPO 2606/2614 25012KT 6000 BKN025 PROB40 TEMPO 2608/2612 4000SA